Paddington, United Kingdom
Current Conditions -  °F | °C
As of 3:50 AM on Sunday 25 Jan 2015 (Local Time) from EGLC Reporting Station
Clear Clear  
Wind Chill: 29°   Ceiling: Unl
Heat Index: 36°   Visibility: 6mi
Dew Point: 32°   Wind: 8mph
Humidity: 87%   Direction: 230°SW
Pressure: 30.45"   Gusts: NA
Location:  51.51°N, 0.17°W
Report Text: EGLC 250350Z AUTO 23007KT 9999 NCD 02/M00 Q1031
Loading
Personal Weather Stations






























Interactive Weather Map New forecast layout! Learn more

10-Day Weather Forecast

Advertisements
Track Severe Weather on mobile